sensor_id;sensor_type;location;lat;lon;timestamp;temperature;humidity
1107;DHT22;540;49.448;8.612;2022-07-05T00:01:34;22.00;50.20
1107;DHT22;540;49.448;8.612;2022-07-05T00:04:02;22.00;50.20
1107;DHT22;540;49.448;8.612;2022-07-05T00:06:30;21.90;50.40
1107;DHT22;540;49.448;8.612;2022-07-05T00:08:57;22.00;50.50
1107;DHT22;540;49.448;8.612;2022-07-05T00:11:25;21.80;50.50
1107;DHT22;540;49.448;8.612;2022-07-05T00:13:53;21.40;50.20
1107;DHT22;540;49.448;8.612;2022-07-05T00:16:21;21.80;50.60
1107;DHT22;540;49.448;8.612;2022-07-05T00:18:50;21.70;50.40
1107;DHT22;540;49.448;8.612;2022-07-05T00:21:18;21.70;50.40
1107;DHT22;540;49.448;8.612;2022-07-05T00:23:45;21.70;50.30
1107;DHT22;540;49.448;8.612;2022-07-05T00:26:13;21.20;49.80
1107;DHT22;540;49.448;8.612;2022-07-05T00:28:41;21.70;50.00
1107;DHT22;540;49.448;8.612;2022-07-05T00:31:09;21.60;49.90
1107;DHT22;540;49.448;8.612;2022-07-05T00:33:37;21.50;49.80
1107;DHT22;540;49.448;8.612;2022-07-05T00:36:06;21.50;49.90
1107;DHT22;540;49.448;8.612;2022-07-05T00:38:34;21.40;50.20
1107;DHT22;540;49.448;8.612;2022-07-05T00:41:02;21.40;50.40
1107;DHT22;540;49.448;8.612;2022-07-05T00:43:30;20.90;50.10
1107;DHT22;540;49.448;8.612;2022-07-05T00:45:57;21.40;50.40
1107;DHT22;540;49.448;8.612;2022-07-05T00:48:25;21.60;50.40
1107;DHT22;540;49.448;8.612;2022-07-05T00:50:53;21.30;50.40
1107;DHT22;540;49.448;8.612;2022-07-05T00:53:22;21.40;50.40
1107;DHT22;540;49.448;8.612;2022-07-05T00:55:50;21.50;50.50
1107;DHT22;540;49.448;8.612;2022-07-05T00:58:18;20.90;50.60
1107;DHT22;540;49.448;8.612;2022-07-05T01:00:46;21.10;51.10
1107;DHT22;540;49.448;8.612;2022-07-05T01:03:13;21.10;51.20
1107;DHT22;540;49.448;8.612;2022-07-05T01:05:42;21.10;51.30
1107;DHT22;540;49.448;8.612;2022-07-05T01:08:10;21.10;51.10
1107;DHT22;540;49.448;8.612;2022-07-05T01:10:42;21.00;50.90
1107;DHT22;540;49.448;8.612;2022-07-05T01:13:10;21.00;51.00
1107;DHT22;540;49.448;8.612;2022-07-05T01:15:38;21.00;51.20
1107;DHT22;540;49.448;8.612;2022-07-05T01:18:07;21.00;51.20
1107;DHT22;540;49.448;8.612;2022-07-05T01:20:36;21.20;51.40
1107;DHT22;540;49.448;8.612;2022-07-05T01:23:05;20.70;50.90
1107;DHT22;540;49.448;8.612;2022-07-05T01:25:33;20.90;51.00
1107;DHT22;540;49.448;8.612;2022-07-05T01:28:03;20.70;51.00
1107;DHT22;540;49.448;8.612;2022-07-05T01:30:32;21.00;51.20
1107;DHT22;540;49.448;8.612;2022-07-05T01:33:01;20.90;51.20
1107;DHT22;540;49.448;8.612;2022-07-05T01:35:29;20.90;51.30
1107;DHT22;540;49.448;8.612;2022-07-05T01:37:57;21.00;51.40
1107;DHT22;540;49.448;8.612;2022-07-05T01:40:26;20.90;51.90
1107;DHT22;540;49.448;8.612;2022-07-05T01:42:54;20.80;51.90
1107;DHT22;540;49.448;8.612;2022-07-05T01:45:22;20.30;51.70
1107;DHT22;540;49.448;8.612;2022-07-05T01:48:10;20.60;52.00
1107;DHT22;540;49.448;8.612;2022-07-05T01:50:42;20.90;52.50
1107;DHT22;540;49.448;8.612;2022-07-05T01:53:16;20.20;52.40
1107;DHT22;540;49.448;8.612;2022-07-05T01:55:47;20.50;52.90
1107;DHT22;540;49.448;8.612;2022-07-05T01:58:15;20.50;52.90
1107;DHT22;540;49.448;8.612;2022-07-05T02:00:44;20.40;52.90
1107;DHT22;540;49.448;8.612;2022-07-05T02:03:14;20.60;53.10
1107;DHT22;540;49.448;8.612;2022-07-05T02:05:59;20.50;53.10
1107;DHT22;540;49.448;8.612;2022-07-05T02:08:29;20.30;53.40
1107;DHT22;540;49.448;8.612;2022-07-05T02:10:58;20.20;55.30
1107;DHT22;540;49.448;8.612;2022-07-05T02:13:26;20.20;57.30
1107;DHT22;540;49.448;8.612;2022-07-05T02:15:54;20.10;58.30
1107;DHT22;540;49.448;8.612;2022-07-05T02:18:22;20.00;57.90
1107;DHT22;540;49.448;8.612;2022-07-05T02:20:49;20.10;57.70
1107;DHT22;540;49.448;8.612;2022-07-05T02:23:17;19.70;58.20
1107;DHT22;540;49.448;8.612;2022-07-05T02:25:45;19.60;59.40
1107;DHT22;540;49.448;8.612;2022-07-05T02:28:14;19.80;59.70
1107;DHT22;540;49.448;8.612;2022-07-05T02:30:42;19.70;60.10
1107;DHT22;540;49.448;8.612;2022-07-05T02:33:10;19.70;60.50
1107;DHT22;540;49.448;8.612;2022-07-05T02:35:38;19.60;61.30
1107;DHT22;540;49.448;8.612;2022-07-05T02:38:05;19.60;61.50
1107;DHT22;540;49.448;8.612;2022-07-05T02:40:33;19.50;61.10
1107;DHT22;540;49.448;8.612;2022-07-05T02:43:01;19.40;59.90
1107;DHT22;540;49.448;8.612;2022-07-05T02:45:30;19.40;61.80
1107;DHT22;540;49.448;8.612;2022-07-05T02:47:58;19.60;62.10
1107;DHT22;540;49.448;8.612;2022-07-05T02:50:26;19.10;61.90
1107;DHT22;540;49.448;8.612;2022-07-05T02:52:54;19.10;61.60
1107;DHT22;540;49.448;8.612;2022-07-05T02:55:21;18.80;61.60
1107;DHT22;540;49.448;8.612;2022-07-05T02:57:49;19.30;62.70
1107;DHT22;540;49.448;8.612;2022-07-05T03:00:17;19.10;63.60
1107;DHT22;540;49.448;8.612;2022-07-05T03:02:46;19.30;67.00
1107;DHT22;540;49.448;8.612;2022-07-05T03:05:14;19.30;69.40
1107;DHT22;540;49.448;8.612;2022-07-05T03:07:42;18.60;69.40
1107;DHT22;540;49.448;8.612;2022-07-05T03:10:10;19.40;69.50
1107;DHT22;540;49.448;8.612;2022-07-05T03:12:37;19.20;69.30
1107;DHT22;540;49.448;8.612;2022-07-05T03:15:06;18.70;68.20
1107;DHT22;540;49.448;8.612;2022-07-05T03:17:37;19.30;68.60
1107;DHT22;540;49.448;8.612;2022-07-05T03:20:07;19.10;69.50
1107;DHT22;540;49.448;8.612;2022-07-05T03:22:35;19.10;69.50
1107;DHT22;540;49.448;8.612;2022-07-05T03:25:04;18.90;70.60
1107;DHT22;540;49.448;8.612;2022-07-05T03:27:32;19.20;70.10
1107;DHT22;540;49.448;8.612;2022-07-05T03:30:00;19.10;69.00
1107;DHT22;540;49.448;8.612;2022-07-05T03:32:28;18.90;70.10
1107;DHT22;540;49.448;8.612;2022-07-05T03:34:55;19.00;71.00
1107;DHT22;540;49.448;8.612;2022-07-05T03:37:25;18.80;68.80
1107;DHT22;540;49.448;8.612;2022-07-05T03:39:52;18.80;68.30
1107;DHT22;540;49.448;8.612;2022-07-05T03:42:20;18.90;67.10
1107;DHT22;540;49.448;8.612;2022-07-05T03:44:48;19.00;66.10
1107;DHT22;540;49.448;8.612;2022-07-05T03:47:16;18.80;65.70
1107;DHT22;540;49.448;8.612;2022-07-05T03:49:43;19.10;65.70
1107;DHT22;540;49.448;8.612;2022-07-05T03:52:12;18.70;65.10
1107;DHT22;540;49.448;8.612;2022-07-05T03:54:41;19.30;65.00
1107;DHT22;540;49.448;8.612;2022-07-05T03:57:11;19.30;65.10
1107;DHT22;540;49.448;8.612;2022-07-05T03:59:39;18.90;64.70
1107;DHT22;540;49.448;8.612;2022-07-05T04:02:08;19.30;65.30
1107;DHT22;540;49.448;8.612;2022-07-05T04:04:35;18.70;65.30
1107;DHT22;540;49.448;8.612;2022-07-05T04:07:03;19.20;67.10
1107;DHT22;540;49.448;8.612;2022-07-05T04:09:31;19.20;69.10
1107;DHT22;540;49.448;8.612;2022-07-05T04:12:00;19.20;70.60
1107;DHT22;540;49.448;8.612;2022-07-05T04:14:29;19.30;69.10
1107;DHT22;540;49.448;8.612;2022-07-05T04:16:57;19.20;68.70
1107;DHT22;540;49.448;8.612;2022-07-05T04:19:24;19.10;68.20
1107;DHT22;540;49.448;8.612;2022-07-05T04:21:52;19.00;67.40
1107;DHT22;540;49.448;8.612;2022-07-05T04:24:20;18.60;66.60
1107;DHT22;540;49.448;8.612;2022-07-05T04:26:48;19.10;66.70
1107;DHT22;540;49.448;8.612;2022-07-05T04:29:17;19.00;66.80
1107;DHT22;540;49.448;8.612;2022-07-05T04:31:45;19.10;66.70
1107;DHT22;540;49.448;8.612;2022-07-05T04:34:13;18.70;66.00
1107;DHT22;540;49.448;8.612;2022-07-05T04:36:41;19.30;66.20
1107;DHT22;540;49.448;8.612;2022-07-05T04:39:09;19.10;66.10
1107;DHT22;540;49.448;8.612;2022-07-05T04:41:36;19.10;65.60
1107;DHT22;540;49.448;8.612;2022-07-05T04:44:04;18.70;64.80
1107;DHT22;540;49.448;8.612;2022-07-05T04:46:34;19.30;65.50
1107;DHT22;540;49.448;8.612;2022-07-05T04:49:02;19.30;65.30
1107;DHT22;540;49.448;8.612;2022-07-05T04:51:29;19.40;66.60
1107;DHT22;540;49.448;8.612;2022-07-05T04:53:57;19.20;66.60
1107;DHT22;540;49.448;8.612;2022-07-05T04:56:25;19.30;66.40
1107;DHT22;540;49.448;8.612;2022-07-05T04:58:53;19.00;66.00
1107;DHT22;540;49.448;8.612;2022-07-05T05:01:21;19.60;66.20
1107;DHT22;540;49.448;8.612;2022-07-05T05:03:50;19.50;66.00
1107;DHT22;540;49.448;8.612;2022-07-05T05:06:18;19.40;65.20
1107;DHT22;540;49.448;8.612;2022-07-05T05:08:46;19.70;65.20
1107;DHT22;540;49.448;8.612;2022-07-05T05:11:13;19.30;64.30
1107;DHT22;540;49.448;8.612;2022-07-05T05:13:41;19.90;64.80
1107;DHT22;540;49.448;8.612;2022-07-05T05:16:12;19.50;64.60
1107;DHT22;540;49.448;8.612;2022-07-05T05:18:39;20.00;64.70
1107;DHT22;540;49.448;8.612;2022-07-05T05:21:09;19.90;62.90
1107;DHT22;540;49.448;8.612;2022-07-05T05:23:36;20.30;62.60
1107;DHT22;540;49.448;8.612;2022-07-05T05:26:04;20.90;60.00
1107;DHT22;540;49.448;8.612;2022-07-05T05:28:32;21.50;58.30
1107;DHT22;540;49.448;8.612;2022-07-05T05:31:01;22.20;57.00
1107;DHT22;540;49.448;8.612;2022-07-05T05:33:28;22.30;54.70
1107;DHT22;540;49.448;8.612;2022-07-05T05:35:57;23.30;53.60
1107;DHT22;540;49.448;8.612;2022-07-05T05:38:26;23.60;52.10
1107;DHT22;540;49.448;8.612;2022-07-05T05:40:54;23.70;51.80
1107;DHT22;540;49.448;8.612;2022-07-05T05:43:22;24.10;51.00
1107;DHT22;540;49.448;8.612;2022-07-05T05:45:49;24.60;50.10
1107;DHT22;540;49.448;8.612;2022-07-05T05:48:17;25.10;48.70
1107;DHT22;540;49.448;8.612;2022-07-05T05:50:47;25.30;48.00
1107;DHT22;540;49.448;8.612;2022-07-05T05:53:15;25.80;47.40
1107;DHT22;540;49.448;8.612;2022-07-05T05:55:44;26.00;46.80
1107;DHT22;540;49.448;8.612;2022-07-05T05:58:13;26.10;46.30
1107;DHT22;540;49.448;8.612;2022-07-05T06:00:41;26.20;45.50
1107;DHT22;540;49.448;8.612;2022-07-05T06:03:09;26.50;44.50
1107;DHT22;540;49.448;8.612;2022-07-05T06:05:37;26.70;44.50
1107;DHT22;540;49.448;8.612;2022-07-05T06:08:05;26.60;44.00
1107;DHT22;540;49.448;8.612;2022-07-05T06:10:34;26.30;44.80
1107;DHT22;540;49.448;8.612;2022-07-05T06:13:05;26.30;45.50
1107;DHT22;540;49.448;8.612;2022-07-05T06:15:32;26.80;44.90
1107;DHT22;540;49.448;8.612;2022-07-05T06:18:00;27.10;44.10
1107;DHT22;540;49.448;8.612;2022-07-05T06:20:30;27.50;42.90
1107;DHT22;540;49.448;8.612;2022-07-05T06:22:59;28.00;42.00
1107;DHT22;540;49.448;8.612;2022-07-05T06:25:27;28.40;40.20
1107;DHT22;540;49.448;8.612;2022-07-05T06:27:56;28.90;38.90
1107;DHT22;540;49.448;8.612;2022-07-05T06:30:28;29.20;38.20
1107;DHT22;540;49.448;8.612;2022-07-05T06:32:56;29.50;37.30
1107;DHT22;540;49.448;8.612;2022-07-05T06:35:25;29.40;37.20
1107;DHT22;540;49.448;8.612;2022-07-05T06:37:54;29.80;36.50
1107;DHT22;540;49.448;8.612;2022-07-05T06:40:23;30.10;36.30
1107;DHT22;540;49.448;8.612;2022-07-05T06:42:52;30.60;35.50
1107;DHT22;540;49.448;8.612;2022-07-05T06:45:20;30.60;34.70
1107;DHT22;540;49.448;8.612;2022-07-05T06:47:56;30.70;34.20
1107;DHT22;540;49.448;8.612;2022-07-05T06:50:24;30.90;33.50
1107;DHT22;540;49.448;8.612;2022-07-05T06:52:52;31.00;33.50
1107;DHT22;540;49.448;8.612;2022-07-05T06:55:21;31.00;33.20
1107;DHT22;540;49.448;8.612;2022-07-05T06:57:55;31.20;33.30
1107;DHT22;540;49.448;8.612;2022-07-05T07:00:40;31.40;32.60
1107;DHT22;540;49.448;8.612;2022-07-05T07:03:29;31.60;32.40
1107;DHT22;540;49.448;8.612;2022-07-05T07:06:17;31.70;31.60
1107;DHT22;540;49.448;8.612;2022-07-05T07:08:46;31.70;31.70
1107;DHT22;540;49.448;8.612;2022-07-05T07:11:30;31.70;31.10
1107;DHT22;540;49.448;8.612;2022-07-05T07:13:58;31.70;31.80
1107;DHT22;540;49.448;8.612;2022-07-05T07:16:26;31.50;31.60
1107;DHT22;540;49.448;8.612;2022-07-05T07:18:56;31.90;31.60
1107;DHT22;540;49.448;8.612;2022-07-05T07:21:41;31.80;31.20
1107;DHT22;540;49.448;8.612;2022-07-05T07:24:10;32.30;30.50
1107;DHT22;540;49.448;8.612;2022-07-05T07:26:37;32.70;29.80
1107;DHT22;540;49.448;8.612;2022-07-05T07:29:22;32.90;29.50
1107;DHT22;540;49.448;8.612;2022-07-05T07:31:50;33.20;29.00
1107;DHT22;540;49.448;8.612;2022-07-05T07:34:20;33.10;28.40
1107;DHT22;540;49.448;8.612;2022-07-05T07:36:48;33.50;28.40
1107;DHT22;540;49.448;8.612;2022-07-05T07:39:16;33.70;28.10
1107;DHT22;540;49.448;8.612;2022-07-05T07:41:44;33.50;28.30
1107;DHT22;540;49.448;8.612;2022-07-05T07:44:11;33.70;28.30
1107;DHT22;540;49.448;8.612;2022-07-05T07:46:40;33.60;28.10
1107;DHT22;540;49.448;8.612;2022-07-05T07:49:08;33.50;28.20
1107;DHT22;540;49.448;8.612;2022-07-05T07:51:38;34.00;28.30
1107;DHT22;540;49.448;8.612;2022-07-05T07:54:06;34.10;28.00
1107;DHT22;540;49.448;8.612;2022-07-05T07:56:34;34.20;27.60
1107;DHT22;540;49.448;8.612;2022-07-05T07:59:02;34.30;27.10
1107;DHT22;540;49.448;8.612;2022-07-05T08:01:30;34.40;27.20
1107;DHT22;540;49.448;8.612;2022-07-05T08:03:59;34.70;26.50
1107;DHT22;540;49.448;8.612;2022-07-05T08:06:27;34.70;26.20
1107;DHT22;540;49.448;8.612;2022-07-05T08:08:57;34.70;26.10
1107;DHT22;540;49.448;8.612;2022-07-05T08:11:25;35.10;26.30
1107;DHT22;540;49.448;8.612;2022-07-05T08:13:53;35.10;26.40
1107;DHT22;540;49.448;8.612;2022-07-05T08:16:21;35.40;25.90
1107;DHT22;540;49.448;8.612;2022-07-05T08:18:49;35.50;25.60
1107;DHT22;540;49.448;8.612;2022-07-05T08:21:34;35.60;24.80
1107;DHT22;540;49.448;8.612;2022-07-05T08:24:07;35.60;24.80
1107;DHT22;540;49.448;8.612;2022-07-05T08:26:36;35.80;24.90
1107;DHT22;540;49.448;8.612;2022-07-05T08:29:05;36.30;24.50
1107;DHT22;540;49.448;8.612;2022-07-05T08:31:37;36.60;24.40
1107;DHT22;540;49.448;8.612;2022-07-05T08:34:05;36.60;24.70
1107;DHT22;540;49.448;8.612;2022-07-05T08:36:33;36.60;24.00
1107;DHT22;540;49.448;8.612;2022-07-05T08:39:01;36.20;24.10
1107;DHT22;540;49.448;8.612;2022-07-05T08:41:34;36.40;23.90
1107;DHT22;540;49.448;8.612;2022-07-05T08:44:03;36.20;24.20
1107;DHT22;540;49.448;8.612;2022-07-05T08:46:32;36.20;24.10
1107;DHT22;540;49.448;8.612;2022-07-05T08:49:02;36.50;23.60
1107;DHT22;540;49.448;8.612;2022-07-05T08:51:38;36.80;23.50
1107;DHT22;540;49.448;8.612;2022-07-05T08:54:08;36.50;23.70
1107;DHT22;540;49.448;8.612;2022-07-05T08:56:40;36.60;23.50
1107;DHT22;540;49.448;8.612;2022-07-05T08:59:28;36.60;23.00
1107;DHT22;540;49.448;8.612;2022-07-05T09:01:57;37.00;22.80
1107;DHT22;540;49.448;8.612;2022-07-05T09:04:29;36.80;22.70
1107;DHT22;540;49.448;8.612;2022-07-05T09:07:00;37.00;22.50
1107;DHT22;540;49.448;8.612;2022-07-05T09:09:31;37.20;22.30
1107;DHT22;540;49.448;8.612;2022-07-05T09:12:01;37.30;22.30
1107;DHT22;540;49.448;8.612;2022-07-05T09:14:47;37.30;22.20
1107;DHT22;540;49.448;8.612;2022-07-05T09:17:15;36.90;22.80
1107;DHT22;540;49.448;8.612;2022-07-05T09:19:43;37.20;22.70
1107;DHT22;540;49.448;8.612;2022-07-05T09:22:10;36.90;22.50
1107;DHT22;540;49.448;8.612;2022-07-05T09:24:45;36.80;22.60
1107;DHT22;540;49.448;8.612;2022-07-05T09:27:15;37.00;22.60
1107;DHT22;540;49.448;8.612;2022-07-05T09:29:53;37.30;22.80
1107;DHT22;540;49.448;8.612;2022-07-05T09:32:28;37.00;22.20
1107;DHT22;540;49.448;8.612;2022-07-05T09:34:57;37.30;21.90
1107;DHT22;540;49.448;8.612;2022-07-05T09:37:42;37.10;21.60
1107;DHT22;540;49.448;8.612;2022-07-05T09:40:10;36.60;22.10
1107;DHT22;540;49.448;8.612;2022-07-05T09:42:47;35.90;22.80
1107;DHT22;540;49.448;8.612;2022-07-05T09:45:24;35.20;24.00
1107;DHT22;540;49.448;8.612;2022-07-05T09:47:54;35.60;23.50
1107;DHT22;540;49.448;8.612;2022-07-05T09:50:42;36.10;23.20
1107;DHT22;540;49.448;8.612;2022-07-05T09:53:44;36.20;22.50
1107;DHT22;540;49.448;8.612;2022-07-05T09:56:12;36.90;21.80
1107;DHT22;540;49.448;8.612;2022-07-05T09:58:43;36.90;20.90
1107;DHT22;540;49.448;8.612;2022-07-05T10:01:24;37.10;21.20
1107;DHT22;540;49.448;8.612;2022-07-05T10:03:52;37.60;20.60
1107;DHT22;540;49.448;8.612;2022-07-05T10:06:22;37.60;20.30
1107;DHT22;540;49.448;8.612;2022-07-05T10:08:51;37.20;20.70
1107;DHT22;540;49.448;8.612;2022-07-05T10:11:20;36.70;21.30
1107;DHT22;540;49.448;8.612;2022-07-05T10:13:58;37.30;20.70
1107;DHT22;540;49.448;8.612;2022-07-05T10:16:26;36.60;21.30
1107;DHT22;540;49.448;8.612;2022-07-05T10:18:55;36.30;21.40
1107;DHT22;540;49.448;8.612;2022-07-05T10:21:24;37.00;20.70
1107;DHT22;540;49.448;8.612;2022-07-05T10:23:53;36.70;20.80
1107;DHT22;540;49.448;8.612;2022-07-05T10:26:23;37.00;21.50
1107;DHT22;540;49.448;8.612;2022-07-05T10:28:52;37.10;21.10
1107;DHT22;540;49.448;8.612;2022-07-05T10:31:29;37.30;20.80
1107;DHT22;540;49.448;8.612;2022-07-05T10:33:57;36.70;20.90
1107;DHT22;540;49.448;8.612;2022-07-05T10:36:53;36.90;20.80
1107;DHT22;540;49.448;8.612;2022-07-05T10:39:22;36.60;20.90
1107;DHT22;540;49.448;8.612;2022-07-05T10:41:52;36.00;21.00
1107;DHT22;540;49.448;8.612;2022-07-05T10:44:29;36.00;22.00
1107;DHT22;540;49.448;8.612;2022-07-05T10:47:09;36.00;21.40
1107;DHT22;540;49.448;8.612;2022-07-05T10:49:38;35.90;22.10
1107;DHT22;540;49.448;8.612;2022-07-05T10:52:21;36.10;22.00
1107;DHT22;540;49.448;8.612;2022-07-05T10:55:20;35.90;22.10
1107;DHT22;540;49.448;8.612;2022-07-05T10:58:19;35.80;22.60
1107;DHT22;540;49.448;8.612;2022-07-05T11:00:48;36.00;22.90
1107;DHT22;540;49.448;8.612;2022-07-05T11:03:36;36.00;23.10
1107;DHT22;540;49.448;8.612;2022-07-05T11:06:06;36.00;23.60
1107;DHT22;540;49.448;8.612;2022-07-05T11:09:13;35.20;24.00
1107;DHT22;540;49.448;8.612;2022-07-05T11:11:42;35.10;24.20
1107;DHT22;540;49.448;8.612;2022-07-05T11:17:22;35.20;24.20
1107;DHT22;540;49.448;8.612;2022-07-05T11:20:15;35.20;23.90
1107;DHT22;540;49.448;8.612;2022-07-05T11:23:16;35.00;23.30
1107;DHT22;540;49.448;8.612;2022-07-05T11:25:53;34.80;23.30
1107;DHT22;540;49.448;8.612;2022-07-05T11:28:22;35.10;24.30
1107;DHT22;540;49.448;8.612;2022-07-05T11:30:55;35.30;24.20
1107;DHT22;540;49.448;8.612;2022-07-05T11:33:27;35.10;24.10
1107;DHT22;540;49.448;8.612;2022-07-05T11:35:57;35.00;24.20
1107;DHT22;540;49.448;8.612;2022-07-05T11:38:25;34.90;24.40
1107;DHT22;540;49.448;8.612;2022-07-05T11:41:14;35.20;24.20
1107;DHT22;540;49.448;8.612;2022-07-05T11:43:42;34.80;23.80
1107;DHT22;540;49.448;8.612;2022-07-05T11:46:11;34.40;24.50
1107;DHT22;540;49.448;8.612;2022-07-05T11:49:00;34.40;24.30
1107;DHT22;540;49.448;8.612;2022-07-05T11:51:29;34.40;24.80
1107;DHT22;540;49.448;8.612;2022-07-05T11:53:57;34.30;24.90
1107;DHT22;540;49.448;8.612;2022-07-05T11:56:44;34.40;24.50
1107;DHT22;540;49.448;8.612;2022-07-05T11:59:18;34.60;23.00
1107;DHT22;540;49.448;8.612;2022-07-05T12:01:47;34.50;23.60
1107;DHT22;540;49.448;8.612;2022-07-05T12:04:21;34.00;24.40
1107;DHT22;540;49.448;8.612;2022-07-05T12:06:51;34.20;24.50
1107;DHT22;540;49.448;8.612;2022-07-05T12:09:23;34.30;24.60
1107;DHT22;540;49.448;8.612;2022-07-05T12:11:52;34.10;24.30
1107;DHT22;540;49.448;8.612;2022-07-05T12:14:40;33.80;24.60
1107;DHT22;540;49.448;8.612;2022-07-05T12:17:14;33.40;25.10
1107;DHT22;540;49.448;8.612;2022-07-05T12:19:51;32.70;26.30
1107;DHT22;540;49.448;8.612;2022-07-05T12:22:29;32.10;27.50
1107;DHT22;540;49.448;8.612;2022-07-05T12:24:57;32.30;27.40
1107;DHT22;540;49.448;8.612;2022-07-05T12:27:26;32.10;26.50
1107;DHT22;540;49.448;8.612;2022-07-05T12:29:54;31.80;27.30
1107;DHT22;540;49.448;8.612;2022-07-05T12:32:22;31.60;27.70
1107;DHT22;540;49.448;8.612;2022-07-05T12:34:50;31.60;27.50
1107;DHT22;540;49.448;8.612;2022-07-05T12:37:21;31.40;27.40
1107;DHT22;540;49.448;8.612;2022-07-05T12:40:03;31.50;26.90
1107;DHT22;540;49.448;8.612;2022-07-05T12:42:31;31.30;27.70
1107;DHT22;540;49.448;8.612;2022-07-05T12:45:08;31.30;28.00
1107;DHT22;540;49.448;8.612;2022-07-05T12:47:36;31.30;28.10
1107;DHT22;540;49.448;8.612;2022-07-05T12:50:05;31.50;28.10
1107;DHT22;540;49.448;8.612;2022-07-05T12:52:33;31.80;26.20
1107;DHT22;540;49.448;8.612;2022-07-05T12:55:22;31.80;26.10
1107;DHT22;540;49.448;8.612;2022-07-05T12:58:07;31.50;25.80
1107;DHT22;540;49.448;8.612;2022-07-05T13:00:35;31.40;25.80
1107;DHT22;540;49.448;8.612;2022-07-05T13:03:03;31.30;25.60
1107;DHT22;540;49.448;8.612;2022-07-05T13:05:31;31.40;26.30
1107;DHT22;540;49.448;8.612;2022-07-05T13:07:59;31.50;26.10
1107;DHT22;540;49.448;8.612;2022-07-05T13:10:28;31.40;25.90
1107;DHT22;540;49.448;8.612;2022-07-05T13:13:06;31.60;26.00
1107;DHT22;540;49.448;8.612;2022-07-05T13:15:36;31.60;25.90
1107;DHT22;540;49.448;8.612;2022-07-05T13:18:04;31.60;25.90
1107;DHT22;540;49.448;8.612;2022-07-05T13:20:32;31.50;25.40
1107;DHT22;540;49.448;8.612;2022-07-05T13:23:00;31.40;26.00
1107;DHT22;540;49.448;8.612;2022-07-05T13:25:29;31.50;25.90
1107;DHT22;540;49.448;8.612;2022-07-05T13:27:57;31.80;25.80
1107;DHT22;540;49.448;8.612;2022-07-05T13:30:25;32.10;25.60
1107;DHT22;540;49.448;8.612;2022-07-05T13:32:53;32.30;25.70
1107;DHT22;540;49.448;8.612;2022-07-05T13:35:21;32.30;25.70
1107;DHT22;540;49.448;8.612;2022-07-05T13:37:48;32.20;25.80
1107;DHT22;540;49.448;8.612;2022-07-05T13:40:16;32.10;26.00
1107;DHT22;540;49.448;8.612;2022-07-05T13:42:45;32.30;25.80
1107;DHT22;540;49.448;8.612;2022-07-05T13:45:13;32.50;25.70
1107;DHT22;540;49.448;8.612;2022-07-05T13:47:41;32.80;25.40
1107;DHT22;540;49.448;8.612;2022-07-05T13:50:09;32.90;25.00
1107;DHT22;540;49.448;8.612;2022-07-05T13:52:55;32.50;25.50
1107;DHT22;540;49.448;8.612;2022-07-05T13:55:22;32.10;25.40
1107;DHT22;540;49.448;8.612;2022-07-05T13:57:52;32.30;25.70
1107;DHT22;540;49.448;8.612;2022-07-05T14:00:20;32.30;25.40
1107;DHT22;540;49.448;8.612;2022-07-05T14:02:48;32.40;25.30
1107;DHT22;540;49.448;8.612;2022-07-05T14:05:16;32.70;25.80
1107;DHT22;540;49.448;8.612;2022-07-05T14:07:45;32.80;24.90
1107;DHT22;540;49.448;8.612;2022-07-05T14:10:12;32.90;24.50
1107;DHT22;540;49.448;8.612;2022-07-05T14:12:40;33.00;24.10
1107;DHT22;540;49.448;8.612;2022-07-05T14:15:10;33.30;24.10
1107;DHT22;540;49.448;8.612;2022-07-05T14:17:37;33.20;23.90
1107;DHT22;540;49.448;8.612;2022-07-05T14:20:07;33.10;24.00
1107;DHT22;540;49.448;8.612;2022-07-05T14:22:36;33.00;23.70
1107;DHT22;540;49.448;8.612;2022-07-05T14:25:04;32.80;23.90
1107;DHT22;540;49.448;8.612;2022-07-05T14:27:32;32.70;23.60
1107;DHT22;540;49.448;8.612;2022-07-05T14:30:00;32.60;23.20
1107;DHT22;540;49.448;8.612;2022-07-05T14:32:30;31.90;24.40
1107;DHT22;540;49.448;8.612;2022-07-05T14:34:58;31.60;25.00
1107;DHT22;540;49.448;8.612;2022-07-05T14:37:26;31.10;25.10
1107;DHT22;540;49.448;8.612;2022-07-05T14:39:54;30.90;25.90
1107;DHT22;540;49.448;8.612;2022-07-05T14:42:22;31.10;26.00
1107;DHT22;540;49.448;8.612;2022-07-05T14:44:50;31.20;25.70
1107;DHT22;540;49.448;8.612;2022-07-05T14:47:18;31.00;25.70
1107;DHT22;540;49.448;8.612;2022-07-05T14:49:47;31.00;26.00
1107;DHT22;540;49.448;8.612;2022-07-05T14:52:15;30.90;25.50
1107;DHT22;540;49.448;8.612;2022-07-05T14:54:43;30.80;26.00
1107;DHT22;540;49.448;8.612;2022-07-05T14:57:10;30.80;26.00
1107;DHT22;540;49.448;8.612;2022-07-05T14:59:38;30.40;26.00
1107;DHT22;540;49.448;8.612;2022-07-05T15:02:08;30.20;26.30
1107;DHT22;540;49.448;8.612;2022-07-05T15:04:36;30.30;26.80
1107;DHT22;540;49.448;8.612;2022-07-05T15:07:05;30.30;26.80
1107;DHT22;540;49.448;8.612;2022-07-05T15:09:33;30.50;26.60
1107;DHT22;540;49.448;8.612;2022-07-05T15:12:01;30.50;26.40
1107;DHT22;540;49.448;8.612;2022-07-05T15:14:29;30.50;26.30
1107;DHT22;540;49.448;8.612;2022-07-05T15:16:57;30.60;26.60
1107;DHT22;540;49.448;8.612;2022-07-05T15:19:25;30.70;26.60
1107;DHT22;540;49.448;8.612;2022-07-05T15:21:54;31.00;27.00
1107;DHT22;540;49.448;8.612;2022-07-05T15:24:23;30.80;26.70
1107;DHT22;540;49.448;8.612;2022-07-05T15:26:52;30.90;26.40
1107;DHT22;540;49.448;8.612;2022-07-05T15:29:39;30.80;26.00
1107;DHT22;540;49.448;8.612;2022-07-05T15:32:08;30.90;26.20
1107;DHT22;540;49.448;8.612;2022-07-05T15:34:36;30.90;25.30
1107;DHT22;540;49.448;8.612;2022-07-05T15:37:04;31.10;24.70
1107;DHT22;540;49.448;8.612;2022-07-05T15:39:33;31.30;26.10
1107;DHT22;540;49.448;8.612;2022-07-05T15:42:04;31.10;26.70
1107;DHT22;540;49.448;8.612;2022-07-05T15:44:32;30.70;27.00
1107;DHT22;540;49.448;8.612;2022-07-05T15:47:00;30.40;27.60
1107;DHT22;540;49.448;8.612;2022-07-05T15:49:30;30.50;27.20
1107;DHT22;540;49.448;8.612;2022-07-05T15:51:59;30.60;27.40
1107;DHT22;540;49.448;8.612;2022-07-05T15:54:27;30.80;26.90
1107;DHT22;540;49.448;8.612;2022-07-05T15:56:56;30.70;27.30
1107;DHT22;540;49.448;8.612;2022-07-05T15:59:26;30.70;27.10
1107;DHT22;540;49.448;8.612;2022-07-05T16:01:54;30.70;27.10
1107;DHT22;540;49.448;8.612;2022-07-05T16:04:22;30.80;27.50
1107;DHT22;540;49.448;8.612;2022-07-05T16:06:56;30.80;27.60
1107;DHT22;540;49.448;8.612;2022-07-05T16:09:25;30.60;26.80
1107;DHT22;540;49.448;8.612;2022-07-05T16:11:53;30.50;26.80
1107;DHT22;540;49.448;8.612;2022-07-05T16:14:22;30.60;26.50
1107;DHT22;540;49.448;8.612;2022-07-05T16:16:50;30.80;26.80
1107;DHT22;540;49.448;8.612;2022-07-05T16:19:18;31.10;26.80
1107;DHT22;540;49.448;8.612;2022-07-05T16:21:46;30.90;26.80
1107;DHT22;540;49.448;8.612;2022-07-05T16:24:17;30.60;27.40
1107;DHT22;540;49.448;8.612;2022-07-05T16:26:45;30.50;27.10
1107;DHT22;540;49.448;8.612;2022-07-05T16:29:13;30.20;27.50
1107;DHT22;540;49.448;8.612;2022-07-05T16:31:42;30.20;27.60
1107;DHT22;540;49.448;8.612;2022-07-05T16:34:10;30.00;28.30
1107;DHT22;540;49.448;8.612;2022-07-05T16:36:38;29.90;28.50
1107;DHT22;540;49.448;8.612;2022-07-05T16:39:05;29.70;28.80
1107;DHT22;540;49.448;8.612;2022-07-05T16:41:37;29.60;29.10